This is the latest recevied weather packets stored in our database for station/object K4MUW-4. If no packets are shown the sender has not sent any weather packets the latest 10 day(s).
| Time | Temp. | Humidity | Pressure | Rain* | Wind** | Luminosity | Snow |
|---|---|---|---|---|---|---|---|
| 1788193689 | 30.56° C | 47% | 1018 hPa | 0 mm | 1.34 m/s, 300° | - | - |
| 1788193389 | 30.56° C | 48% | 1018 hPa | 0 mm | 1.79 m/s, 290° | - | - |
| 1788193089 | 30.56° C | 55% | 1018 hPa | 0 mm | 0 m/s | - | - |
| 1788192788 | 30.56° C | 56% | 1019 hPa | 0 mm | 1.34 m/s, 160° | - | - |
| 1788192488 | 30° C | 58% | 1019 hPa | 0 mm | 1.79 m/s, 191° | - | - |
| 1788192187 | 30° C | 54% | 1019 hPa | 0 mm | 0 m/s | - | - |
| 1788191887 | 30° C | 61% | 1019 hPa | 0 mm | 1.34 m/s, 191° | - | - |
| 1788191587 | 30° C | 59% | 1019 hPa | 0 mm | 1.79 m/s, 208° | - | - |
| 1788191286 | 29.44° C | 63% | 1019 hPa | 0 mm | 1.79 m/s, 171° | - | - |
| 1788190986 | 29.44° C | 66% | 1019 hPa | 0 mm | 0 m/s | - | - |
| 1788190686 | 28.89° C | 66% | 1019 hPa | 0 mm | 1.79 m/s, 189° | - | - |
| 1788190381 | 28.89° C | 67% | 1019 hPa | 0 mm | 1.79 m/s, 185° | - | - |
| 1788190080 | 28.33° C | 66% | 1019 hPa | 0 mm | 0 m/s | - | - |
| 1788189780 | 28.33° C | 69% | 1019 hPa | 0 mm | 0 m/s | - | - |
| 1788189480 | 28.33° C | 69% | 1019 hPa | 0 mm | 0 m/s | - | - |
| 1788189179 | 27.78° C | 72% | 1019 hPa | 0 mm | 0 m/s | - | - |
| 1788188879 | 27.78° C | 75% | 1019 hPa | 0 mm | 0 m/s | - | - |
| 1788188579 | 27.22° C | 75% | 1019 hPa | 0 mm | 1.79 m/s, 191° | - | - |
| 1788188278 | 27.22° C | 76% | 1019 hPa | 0 mm | 1.79 m/s, 194° | - | - |
| 1788187978 | 27.22° C | 76% | 1019 hPa | 0 mm | 0 m/s | - | - |
| 1788187678 | 26.67° C | 75% | 1019 hPa | 0 mm | 1.34 m/s, 190° | - | - |
| 1788187194 | 26.11° C | 78% | 1019 hPa | 0 mm | 1.34 m/s, 189° | - | - |
| 1788186894 | 26.11° C | 80% | 1019 hPa | 0 mm | 1.79 m/s, 188° | - | - |
| 1788186593 | 26.11° C | 80% | 1019 hPa | 0 mm | 0 m/s | - | - |
| 1788186293 | 25.56° C | 80% | 1019 hPa | 0 mm | 1.79 m/s, 188° | - | - |
* Rain latest hour (hover to see other rain measurements)
** Current wind speed in m/s (hover to see current wind gust speed)